createdAt,value
2023-05-14T00:01:32.191Z,16.49
2023-05-14T00:03:59.318Z,16.40
2023-05-14T00:06:26.186Z,16.42
2023-05-14T00:08:52.883Z,16.38
2023-05-14T00:11:19.864Z,16.36
2023-05-14T00:13:46.673Z,16.33
2023-05-14T00:16:13.455Z,16.31
2023-05-14T00:18:40.251Z,16.34
2023-05-14T00:21:07.082Z,16.33
2023-05-14T00:23:33.917Z,16.32
2023-05-14T00:26:00.595Z,16.27
2023-05-14T00:28:27.496Z,16.21
2023-05-14T00:30:54.431Z,16.17
2023-05-14T00:33:21.166Z,16.07
2023-05-14T00:35:47.882Z,16.16
2023-05-14T00:38:19.504Z,15.93
2023-05-14T00:40:51.431Z,15.79
2023-05-14T00:43:21.795Z,15.67
2023-05-14T00:45:53.091Z,15.63
2023-05-14T00:48:23.295Z,15.58
2023-05-14T00:50:51.336Z,15.56
2023-05-14T00:53:21.345Z,15.51
2023-05-14T00:55:49.617Z,15.56
2023-05-14T00:58:16.550Z,15.62
2023-05-14T01:00:43.329Z,15.73
2023-05-14T01:03:10.283Z,15.82
2023-05-14T01:05:43.817Z,15.78
2023-05-14T01:08:25.992Z,15.67
2023-05-14T01:10:55.023Z,15.48
2023-05-14T01:14:06.764Z,15.53
2023-05-14T01:16:34.840Z,15.53
2023-05-14T01:19:02.428Z,15.50
2023-05-14T01:21:43.304Z,15.53
2023-05-14T01:24:10.084Z,15.48
2023-05-14T01:26:37.236Z,15.44
2023-05-14T01:29:14.401Z,15.42
2023-05-14T01:31:43.732Z,15.38
2023-05-14T01:34:12.374Z,15.31
2023-05-14T01:36:40.860Z,15.32
2023-05-14T01:39:09.831Z,15.32
2023-05-14T01:41:37.647Z,15.28
2023-05-14T01:44:04.539Z,15.18
2023-05-14T01:46:32.957Z,14.96
2023-05-14T01:49:00.319Z,15.09
2023-05-14T01:51:27.278Z,14.89
2023-05-14T01:53:54.095Z,14.96
2023-05-14T01:56:24.256Z,14.90
2023-05-14T01:58:50.969Z,14.87
2023-05-14T02:01:17.685Z,14.86
2023-05-14T02:03:44.460Z,14.81
2023-05-14T02:06:11.222Z,14.81
2023-05-14T02:08:37.889Z,14.79
2023-05-14T02:11:04.677Z,14.66
2023-05-14T02:13:31.328Z,14.55
2023-05-14T02:15:58.072Z,14.64
2023-05-14T02:18:24.855Z,14.66
2023-05-14T02:20:51.584Z,14.73
2023-05-14T02:23:18.717Z,14.65
2023-05-14T02:25:46.222Z,14.59
2023-05-14T02:28:12.893Z,14.68
2023-05-14T02:30:40.260Z,14.73
2023-05-14T02:33:07.124Z,14.83
2023-05-14T02:35:33.866Z,14.75
2023-05-14T02:38:00.723Z,14.69
2023-05-14T02:40:27.402Z,14.67
2023-05-14T02:42:54.184Z,14.60
2023-05-14T02:45:21.758Z,14.64
2023-05-14T02:47:48.530Z,14.81
2023-05-14T02:50:15.279Z,14.53
2023-05-14T02:52:41.968Z,14.46
2023-05-14T02:55:09.304Z,14.56
2023-05-14T02:57:36.012Z,14.47
2023-05-14T03:00:02.724Z,14.47
2023-05-14T03:02:29.868Z,14.56
2023-05-14T03:04:57.041Z,14.62
2023-05-14T03:07:23.883Z,14.55
2023-05-14T03:09:50.567Z,14.57
2023-05-14T03:12:18.289Z,14.57
2023-05-14T03:14:44.964Z,14.50
2023-05-14T03:17:11.826Z,14.43
2023-05-14T03:19:38.614Z,14.39
2023-05-14T03:22:05.348Z,14.37
2023-05-14T03:24:32.061Z,14.42
2023-05-14T03:26:58.770Z,14.38
2023-05-14T03:29:25.478Z,14.35
2023-05-14T03:31:52.246Z,14.41
2023-05-14T03:34:19.036Z,14.33
2023-05-14T03:36:45.790Z,14.40
2023-05-14T03:39:15.606Z,14.33
2023-05-14T03:41:42.320Z,14.25
2023-05-14T03:44:09.044Z,14.21
2023-05-14T03:46:36.018Z,14.25
2023-05-14T03:49:02.848Z,14.25
2023-05-14T03:51:29.628Z,14.30
2023-05-14T03:53:56.667Z,14.24
2023-05-14T03:56:23.360Z,14.19
2023-05-14T03:58:50.089Z,14.16
2023-05-14T04:01:16.913Z,14.15
2023-05-14T04:03:43.884Z,14.11
2023-05-14T04:06:10.686Z,14.22
2023-05-14T04:08:37.379Z,14.20
2023-05-14T04:11:06.835Z,14.21
2023-05-14T04:13:33.504Z,14.21
2023-05-14T04:16:00.645Z,14.26
2023-05-14T04:18:27.442Z,14.18
2023-05-14T04:20:54.297Z,14.17
2023-05-14T04:23:21.004Z,14.23
2023-05-14T04:25:47.730Z,14.25
2023-05-14T04:28:15.169Z,14.20
2023-05-14T04:30:42.084Z,14.13
2023-05-14T04:33:08.808Z,13.98
2023-05-14T04:35:35.672Z,14.02
2023-05-14T04:38:02.354Z,13.94
2023-05-14T04:40:29.015Z,13.82
2023-05-14T04:42:55.834Z,13.88
2023-05-14T04:45:22.641Z,13.88
2023-05-14T04:47:49.394Z,13.89
2023-05-14T04:50:16.671Z,13.88
2023-05-14T04:52:43.358Z,13.88
2023-05-14T04:55:10.436Z,14.02
2023-05-14T04:57:37.100Z,14.01
2023-05-14T05:00:06.160Z,14.07
2023-05-14T05:02:34.946Z,13.99
2023-05-14T05:05:01.817Z,13.97
2023-05-14T05:07:28.523Z,13.92
2023-05-14T05:09:55.217Z,13.99
2023-05-14T05:12:21.978Z,14.02
2023-05-14T05:14:48.687Z,14.01
2023-05-14T05:17:15.471Z,13.93
2023-05-14T05:19:44.285Z,13.90
2023-05-14T05:22:11.525Z,13.98
2023-05-14T05:24:38.243Z,13.98
2023-05-14T05:27:05.686Z,13.80
2023-05-14T05:29:32.491Z,13.90
2023-05-14T05:31:59.449Z,13.91
2023-05-14T05:34:26.143Z,13.80
2023-05-14T05:36:52.836Z,13.79
2023-05-14T05:39:19.603Z,13.85
2023-05-14T05:41:46.308Z,13.85
2023-05-14T05:44:13.164Z,14.01
2023-05-14T05:46:39.934Z,14.04
2023-05-14T05:49:06.650Z,13.98
2023-05-14T05:51:33.559Z,13.99
2023-05-14T05:54:00.358Z,14.00
2023-05-14T05:56:27.038Z,14.02
2023-05-14T05:58:54.611Z,14.15
2023-05-14T06:01:21.351Z,14.31
2023-05-14T06:03:48.802Z,14.22
2023-05-14T06:06:15.886Z,14.20
2023-05-14T06:08:42.630Z,14.26
2023-05-14T06:11:09.365Z,14.43
2023-05-14T06:13:36.271Z,14.50
2023-05-14T06:16:03.001Z,14.56
2023-05-14T06:18:29.725Z,14.60
2023-05-14T06:20:57.286Z,14.75
2023-05-14T06:23:23.951Z,14.80
2023-05-14T06:25:51.218Z,14.79
2023-05-14T06:28:18.085Z,14.86
2023-05-14T06:30:44.784Z,14.98
2023-05-14T06:33:13.609Z,15.01
2023-05-14T06:35:40.323Z,15.07
2023-05-14T06:38:07.227Z,15.16
2023-05-14T06:40:33.992Z,15.17
2023-05-14T06:43:00.725Z,15.25
2023-05-14T06:45:27.470Z,15.28
2023-05-14T06:47:54.283Z,15.38
2023-05-14T06:50:21.364Z,15.47
2023-05-14T06:52:48.433Z,15.52
2023-05-14T06:55:15.212Z,15.47
2023-05-14T06:57:41.920Z,15.46
2023-05-14T07:00:09.192Z,15.56
2023-05-14T07:02:36.025Z,15.59
2023-05-14T07:05:03.302Z,15.67
2023-05-14T07:07:29.994Z,15.85
2023-05-14T07:09:56.704Z,15.92
2023-05-14T07:12:23.421Z,15.99
2023-05-14T07:14:50.803Z,16.12
2023-05-14T07:17:17.691Z,16.03
2023-05-14T07:19:44.454Z,16.11
2023-05-14T07:22:11.202Z,16.20
2023-05-14T07:24:37.900Z,16.32
2023-05-14T07:27:04.996Z,16.39
2023-05-14T07:29:35.114Z,16.43
2023-05-14T07:32:02.237Z,16.53
2023-05-14T07:34:28.990Z,16.57
2023-05-14T07:37:01.206Z,16.66
2023-05-14T07:39:27.989Z,16.76
2023-05-14T07:41:57.815Z,16.88
2023-05-14T07:44:24.654Z,16.97
2023-05-14T07:46:51.572Z,17.03
2023-05-14T07:49:25.633Z,17.08
2023-05-14T07:51:52.399Z,17.06
2023-05-14T07:54:19.180Z,17.16
2023-05-14T07:56:45.902Z,17.18
2023-05-14T07:59:13.152Z,17.28
2023-05-14T08:01:39.908Z,17.36
2023-05-14T08:04:06.893Z,17.43
2023-05-14T08:06:40.526Z,17.45
2023-05-14T08:09:07.348Z,17.50
2023-05-14T08:11:34.580Z,17.63
2023-05-14T08:14:06.618Z,17.76
2023-05-14T08:16:33.700Z,17.85
2023-05-14T08:19:00.526Z,17.91
2023-05-14T08:21:28.303Z,18.00
2023-05-14T08:23:55.060Z,18.07
2023-05-14T08:26:22.284Z,18.16
2023-05-14T08:28:50.981Z,18.25
2023-05-14T08:31:17.782Z,18.27
2023-05-14T08:33:44.509Z,18.40
2023-05-14T08:36:11.332Z,18.53
2023-05-14T08:38:38.090Z,18.57
2023-05-14T08:41:11.818Z,18.68
2023-05-14T08:44:01.751Z,18.73
2023-05-14T08:46:31.217Z,18.88
2023-05-14T08:49:10.488Z,18.95
2023-05-14T08:51:37.256Z,19.06
2023-05-14T08:54:04.554Z,19.29
2023-05-14T08:56:33.183Z,19.50
2023-05-14T08:59:00.873Z,19.69
2023-05-14T09:01:29.315Z,19.90
2023-05-14T09:03:56.553Z,20.11
2023-05-14T09:06:24.464Z,20.22
2023-05-14T09:08:51.416Z,20.42
2023-05-14T09:11:18.094Z,20.60
2023-05-14T09:13:44.811Z,20.79
2023-05-14T09:16:11.670Z,21.08
2023-05-14T09:18:38.593Z,21.20
2023-05-14T09:21:05.450Z,21.28
2023-05-14T09:23:34.588Z,21.47
2023-05-14T09:26:05.771Z,21.60
2023-05-14T09:28:32.416Z,21.76
2023-05-14T09:31:01.715Z,21.89
2023-05-14T09:33:29.743Z,21.91
2023-05-14T09:35:59.994Z,21.97
2023-05-14T09:38:31.295Z,21.68
2023-05-14T09:40:58.851Z,21.78
2023-05-14T09:43:26.337Z,21.91
2023-05-14T09:45:53.694Z,22.06
2023-05-14T09:48:20.729Z,22.12
2023-05-14T09:50:47.553Z,22.24
2023-05-14T09:53:14.779Z,22.35
2023-05-14T09:55:41.962Z,22.62
2023-05-14T09:58:08.833Z,22.45
2023-05-14T10:00:36.065Z,22.61
2023-05-14T10:03:08.000Z,22.88
2023-05-14T10:05:37.934Z,23.09
2023-05-14T10:08:14.261Z,23.22
2023-05-14T10:10:41.125Z,23.22
2023-05-14T10:13:20.834Z,23.17
2023-05-14T10:16:21.343Z,23.33
2023-05-14T10:18:53.533Z,23.52
2023-05-14T10:21:24.582Z,23.62
2023-05-14T10:23:51.731Z,23.50
2023-05-14T10:26:18.658Z,23.54
2023-05-14T10:28:45.741Z,23.36
2023-05-14T10:31:14.485Z,22.82
2023-05-14T10:33:49.581Z,22.83
2023-05-14T10:36:17.815Z,23.29
2023-05-14T10:38:44.504Z,23.46
2023-05-14T10:41:13.128Z,23.22
2023-05-14T10:43:41.740Z,22.70
2023-05-14T10:46:10.128Z,22.32
2023-05-14T10:48:38.065Z,22.10
2023-05-14T10:51:07.756Z,21.92
2023-05-14T10:53:37.350Z,21.80
2023-05-14T10:56:08.497Z,21.66
2023-05-14T10:58:39.682Z,21.73
2023-05-14T11:01:08.546Z,21.64
2023-05-14T11:03:43.322Z,21.58
2023-05-14T11:06:11.443Z,21.47
2023-05-14T11:08:38.881Z,21.82
2023-05-14T11:11:12.333Z,22.33
2023-05-14T11:13:39.112Z,22.95
2023-05-14T11:16:23.423Z,23.35
2023-05-14T11:19:02.360Z,23.44
2023-05-14T11:21:30.462Z,23.47
2023-05-14T11:23:57.721Z,23.63
2023-05-14T11:26:24.577Z,23.88
2023-05-14T11:28:51.388Z,23.59
2023-05-14T11:31:18.176Z,23.48
2023-05-14T11:33:47.138Z,23.14
2023-05-14T11:36:18.992Z,22.77
2023-05-14T11:38:54.930Z,22.55
2023-05-14T11:41:28.349Z,22.42
2023-05-14T11:43:55.158Z,22.59
2023-05-14T11:46:22.617Z,22.95
2023-05-14T11:48:55.582Z,23.00
2023-05-14T11:51:23.594Z,23.19
2023-05-14T11:53:50.620Z,23.36
2023-05-14T11:56:22.790Z,23.54
2023-05-14T11:58:49.603Z,23.32
2023-05-14T12:01:16.733Z,23.34
2023-05-14T12:03:43.802Z,23.21
2023-05-14T12:06:10.817Z,23.48
2023-05-14T12:08:37.880Z,23.62
2023-05-14T12:11:04.858Z,23.81
2023-05-14T12:13:32.339Z,23.86
2023-05-14T12:16:01.016Z,23.93
2023-05-14T12:18:29.918Z,24.00
2023-05-14T12:20:59.351Z,24.06
2023-05-14T12:23:30.931Z,24.05
2023-05-14T12:26:08.923Z,23.88
2023-05-14T12:28:38.275Z,23.91
2023-05-14T12:31:05.617Z,23.81
2023-05-14T12:33:32.603Z,23.82
2023-05-14T12:36:19.812Z,23.60
2023-05-14T12:38:47.061Z,23.61
2023-05-14T12:41:13.958Z,23.51
2023-05-14T12:43:44.818Z,23.28
2023-05-14T12:46:11.663Z,23.30
2023-05-14T12:48:38.703Z,23.26
2023-05-14T12:51:05.449Z,22.95
2023-05-14T12:53:32.411Z,22.87
2023-05-14T12:55:59.168Z,22.79
2023-05-14T12:58:25.878Z,22.76
2023-05-14T13:00:52.711Z,22.71
2023-05-14T13:03:19.554Z,22.67
2023-05-14T13:05:46.404Z,22.70
2023-05-14T13:08:15.060Z,22.64
2023-05-14T13:10:41.844Z,22.59
2023-05-14T13:13:08.646Z,22.67
2023-05-14T13:15:36.746Z,22.82
2023-05-14T13:18:03.954Z,23.13
2023-05-14T13:20:31.383Z,23.44
2023-05-14T13:22:58.766Z,23.78
2023-05-14T13:25:26.028Z,23.83
2023-05-14T13:27:52.942Z,23.79
2023-05-14T13:30:20.301Z,23.97
2023-05-14T13:32:47.147Z,24.21
2023-05-14T13:35:14.355Z,24.37
2023-05-14T13:37:41.156Z,24.22
2023-05-14T13:40:08.620Z,23.83
2023-05-14T13:42:36.457Z,23.82
2023-05-14T13:45:04.219Z,23.75
2023-05-14T13:47:31.523Z,23.65
2023-05-14T13:49:58.247Z,23.54
2023-05-14T13:52:25.576Z,23.12
2023-05-14T13:54:53.399Z,23.06
2023-05-14T13:57:20.361Z,22.98
2023-05-14T13:59:47.781Z,22.82
2023-05-14T14:02:14.937Z,22.97
2023-05-14T14:04:41.815Z,23.23
2023-05-14T14:07:09.334Z,23.49
2023-05-14T14:09:37.139Z,23.61
2023-05-14T14:12:04.753Z,23.65
2023-05-14T14:14:32.035Z,23.51
2023-05-14T14:17:04.969Z,23.44
2023-05-14T14:19:31.790Z,23.32
2023-05-14T14:22:04.737Z,23.26
2023-05-14T14:24:31.483Z,23.28
2023-05-14T14:26:58.224Z,23.17
2023-05-14T14:29:25.057Z,22.97
2023-05-14T14:31:51.961Z,22.84
2023-05-14T14:34:20.514Z,22.83
2023-05-14T14:36:47.989Z,22.92
2023-05-14T14:39:15.036Z,22.99
2023-05-14T14:41:41.748Z,23.30
2023-05-14T14:44:08.619Z,23.35
2023-05-14T14:46:35.469Z,23.49
2023-05-14T14:49:02.279Z,23.63
2023-05-14T14:51:30.405Z,23.68
2023-05-14T14:54:02.560Z,23.76
2023-05-14T14:56:29.456Z,23.72
2023-05-14T14:58:59.397Z,23.59
2023-05-14T15:01:26.381Z,23.33
2023-05-14T15:03:53.492Z,23.12
2023-05-14T15:06:20.408Z,22.82
2023-05-14T15:08:47.206Z,22.43
2023-05-14T15:11:14.987Z,22.30
2023-05-14T15:13:42.599Z,22.25
2023-05-14T15:16:09.559Z,22.24
2023-05-14T15:18:36.486Z,22.18
2023-05-14T15:21:03.466Z,22.24
2023-05-14T15:23:30.527Z,22.21
2023-05-14T15:25:57.596Z,22.08
2023-05-14T15:28:24.384Z,22.07
2023-05-14T15:30:51.246Z,22.13
2023-05-14T15:33:19.704Z,22.24
2023-05-14T15:35:46.691Z,22.34
2023-05-14T15:38:16.236Z,22.41
2023-05-14T15:40:43.056Z,22.42
2023-05-14T15:43:09.810Z,22.44
2023-05-14T15:45:36.770Z,22.32
2023-05-14T15:48:03.679Z,22.26
2023-05-14T15:50:30.562Z,22.22
2023-05-14T15:52:57.774Z,22.20
2023-05-14T15:55:24.688Z,22.20
2023-05-14T15:57:51.800Z,22.22
2023-05-14T16:00:18.932Z,22.18
2023-05-14T16:02:46.161Z,22.21
2023-05-14T16:05:14.012Z,22.27
2023-05-14T16:07:41.029Z,22.26
2023-05-14T16:10:08.542Z,22.31
2023-05-14T16:12:35.416Z,22.30
2023-05-14T16:15:06.202Z,22.10
2023-05-14T16:17:34.107Z,21.82
2023-05-14T16:20:01.467Z,21.71
2023-05-14T16:22:29.588Z,21.71
2023-05-14T16:24:56.323Z,21.63
2023-05-14T16:27:23.230Z,21.74
2023-05-14T16:29:50.087Z,21.78
2023-05-14T16:32:16.860Z,21.76
2023-05-14T16:34:49.923Z,21.82
2023-05-14T16:37:17.903Z,21.78
2023-05-14T16:39:44.670Z,21.89
2023-05-14T16:42:11.787Z,21.89
2023-05-14T16:44:38.838Z,21.88
2023-05-14T16:47:05.901Z,21.91
2023-05-14T16:49:38.702Z,21.95
2023-05-14T16:52:06.247Z,21.96
2023-05-14T16:54:33.374Z,22.00
2023-05-14T16:57:00.292Z,22.05
2023-05-14T16:59:27.124Z,22.07
2023-05-14T17:01:54.183Z,21.89
2023-05-14T17:04:21.415Z,21.76
2023-05-14T17:06:48.653Z,21.77
2023-05-14T17:09:15.533Z,21.77
2023-05-14T17:11:42.238Z,21.76
2023-05-14T17:14:09.312Z,21.79
2023-05-14T17:16:36.362Z,21.73
2023-05-14T17:19:03.279Z,21.55
2023-05-14T17:21:30.021Z,21.61
2023-05-14T17:23:56.726Z,21.63
2023-05-14T17:26:23.547Z,21.57
2023-05-14T17:28:50.367Z,21.55
2023-05-14T17:31:17.331Z,21.46
2023-05-14T17:33:57.734Z,21.43
2023-05-14T17:36:28.245Z,21.41
2023-05-14T17:38:55.219Z,21.44
2023-05-14T17:41:21.986Z,21.40
2023-05-14T17:43:48.908Z,21.35
2023-05-14T17:46:15.935Z,21.34
2023-05-14T17:48:43.078Z,21.28
2023-05-14T17:51:12.102Z,21.21
2023-05-14T17:53:38.982Z,21.16
2023-05-14T17:56:05.876Z,21.20
2023-05-14T17:58:32.616Z,21.17
2023-05-14T18:00:59.479Z,21.08
2023-05-14T18:03:26.368Z,21.02
2023-05-14T18:05:53.142Z,20.94
2023-05-14T18:08:20.162Z,20.86
2023-05-14T18:10:46.989Z,20.82
2023-05-14T18:13:13.757Z,20.87
2023-05-14T18:15:40.475Z,20.81
2023-05-14T18:18:07.356Z,20.82
2023-05-14T18:20:35.594Z,20.84
2023-05-14T18:23:03.076Z,20.80
2023-05-14T18:25:29.958Z,20.75
2023-05-14T18:27:56.694Z,20.80
2023-05-14T18:30:24.195Z,20.80
2023-05-14T18:32:51.036Z,20.67
2023-05-14T18:35:17.991Z,20.64
2023-05-14T18:37:45.108Z,20.59
2023-05-14T18:40:16.865Z,20.58
2023-05-14T18:42:45.117Z,20.56
2023-05-14T18:45:12.046Z,20.51
2023-05-14T18:47:39.885Z,20.52
2023-05-14T18:50:07.992Z,20.47
2023-05-14T18:52:35.104Z,20.47
2023-05-14T18:55:01.855Z,20.43
2023-05-14T18:57:29.604Z,20.41
2023-05-14T18:59:58.712Z,20.35
2023-05-14T19:02:27.518Z,20.37
2023-05-14T19:04:54.358Z,20.37
2023-05-14T19:07:24.172Z,20.32
2023-05-14T19:09:51.163Z,20.24
2023-05-14T19:12:17.952Z,20.21
2023-05-14T19:14:44.736Z,20.24
2023-05-14T19:17:11.551Z,20.23
2023-05-14T19:19:39.534Z,20.21
2023-05-14T19:22:06.900Z,20.18
2023-05-14T19:24:33.768Z,20.24
2023-05-14T19:27:00.863Z,20.19
2023-05-14T19:29:27.635Z,20.18
2023-05-14T19:31:54.451Z,20.15
2023-05-14T19:34:21.706Z,20.07
2023-05-14T19:36:48.629Z,20.03
2023-05-14T19:39:15.551Z,19.97
2023-05-14T19:41:42.336Z,19.96
2023-05-14T19:44:09.088Z,19.98
2023-05-14T19:46:35.907Z,19.99
2023-05-14T19:49:02.769Z,19.98
2023-05-14T19:51:29.463Z,19.90
2023-05-14T19:53:56.174Z,19.91
2023-05-14T19:56:24.290Z,19.95
2023-05-14T19:58:52.489Z,19.94
2023-05-14T20:01:21.129Z,19.92
2023-05-14T20:03:47.937Z,19.88
2023-05-14T20:06:14.792Z,19.84
2023-05-14T20:08:41.506Z,19.86
2023-05-14T20:11:08.235Z,19.94
2023-05-14T20:13:36.639Z,19.92
2023-05-14T20:16:03.383Z,19.85
2023-05-14T20:18:30.273Z,19.81
2023-05-14T20:20:57.117Z,19.75
2023-05-14T20:23:23.854Z,19.66
2023-05-14T20:25:51.441Z,19.69
2023-05-14T20:28:18.180Z,19.64
2023-05-14T20:30:44.935Z,19.65
2023-05-14T20:33:13.631Z,19.64
2023-05-14T20:35:44.082Z,19.55
2023-05-14T20:38:12.937Z,19.46
2023-05-14T20:40:40.115Z,19.51
2023-05-14T20:43:06.913Z,19.42
2023-05-14T20:45:33.725Z,19.30
2023-05-14T20:48:00.819Z,19.30
2023-05-14T20:50:28.119Z,19.27
2023-05-14T20:52:55.670Z,19.09
2023-05-14T20:55:22.926Z,19.12
2023-05-14T20:57:50.086Z,19.08
2023-05-14T21:00:17.249Z,19.10
2023-05-14T21:02:44.011Z,19.22
2023-05-14T21:05:11.147Z,19.10
2023-05-14T21:07:39.621Z,19.06
2023-05-14T21:10:08.286Z,19.10
2023-05-14T21:12:35.026Z,19.12
2023-05-14T21:15:01.727Z,19.11
2023-05-14T21:17:28.503Z,18.99
2023-05-14T21:19:55.241Z,18.90
2023-05-14T21:22:22.401Z,18.83
2023-05-14T21:24:50.681Z,18.80
2023-05-14T21:27:17.488Z,18.82
2023-05-14T21:29:46.468Z,18.77
2023-05-14T21:32:13.188Z,18.73
2023-05-14T21:34:39.967Z,18.61
2023-05-14T21:37:06.730Z,18.50
2023-05-14T21:39:33.468Z,18.51
2023-05-14T21:42:00.195Z,18.54
2023-05-14T21:44:26.965Z,18.42
2023-05-14T21:46:53.709Z,18.34
2023-05-14T21:49:20.502Z,18.23
2023-05-14T21:51:47.243Z,18.07
2023-05-14T21:54:14.254Z,18.04
2023-05-14T21:56:40.985Z,17.96
2023-05-14T21:59:07.707Z,18.05
2023-05-14T22:01:42.185Z,18.03
2023-05-14T22:04:17.722Z,18.01
2023-05-14T22:06:44.550Z,18.02
2023-05-14T22:09:11.612Z,17.99
2023-05-14T22:11:38.436Z,18.00
2023-05-14T22:14:05.151Z,17.98
2023-05-14T22:16:33.279Z,17.94
2023-05-14T22:19:00.085Z,17.97
2023-05-14T22:21:26.945Z,18.01
2023-05-14T22:23:53.972Z,18.01
2023-05-14T22:26:21.833Z,17.91
2023-05-14T22:28:49.817Z,17.89
2023-05-14T22:31:16.650Z,17.80
2023-05-14T22:33:43.447Z,17.77
2023-05-14T22:36:10.696Z,17.66
2023-05-14T22:38:38.583Z,17.65
2023-05-14T22:41:05.543Z,17.59
2023-05-14T22:43:32.293Z,17.33
2023-05-14T22:45:59.019Z,17.23
2023-05-14T22:48:26.066Z,17.33
2023-05-14T22:50:53.557Z,17.24
2023-05-14T22:53:20.286Z,17.21
2023-05-14T22:55:47.022Z,17.16
2023-05-14T22:58:13.690Z,16.99
2023-05-14T23:00:40.440Z,17.11
2023-05-14T23:03:07.200Z,17.13
2023-05-14T23:05:34.064Z,17.20
2023-05-14T23:08:00.954Z,17.08
2023-05-14T23:10:27.845Z,17.00
2023-05-14T23:12:54.523Z,17.05
2023-05-14T23:15:21.226Z,17.08
2023-05-14T23:17:48.073Z,17.03
2023-05-14T23:20:15.108Z,17.03
2023-05-14T23:22:47.498Z,17.01
2023-05-14T23:25:14.557Z,16.98
2023-05-14T23:27:41.397Z,17.04
2023-05-14T23:30:08.583Z,16.84
2023-05-14T23:32:35.250Z,16.87
2023-05-14T23:35:01.941Z,16.65
2023-05-14T23:37:28.618Z,16.57
2023-05-14T23:39:55.742Z,16.54
2023-05-14T23:42:22.979Z,16.42
2023-05-14T23:44:49.785Z,16.28
2023-05-14T23:47:16.570Z,16.18
2023-05-14T23:49:43.335Z,16.20
2023-05-14T23:52:10.113Z,15.99
2023-05-14T23:54:36.812Z,15.95
2023-05-14T23:57:04.177Z,15.99
2023-05-14T23:59:30.890Z,15.93
